createdAt,value
2022-10-19T00:01:02.671Z,20.00
2022-10-19T00:03:29.524Z,19.90
2022-10-19T00:05:56.388Z,20.00
2022-10-19T00:08:28.783Z,19.90
2022-10-19T00:11:01.149Z,19.90
2022-10-19T00:13:27.990Z,20.00
2022-10-19T00:15:54.687Z,20.00
2022-10-19T00:18:21.421Z,19.90
2022-10-19T00:20:48.155Z,19.90
2022-10-19T00:23:15.021Z,20.00
2022-10-19T00:25:41.801Z,20.00
2022-10-19T00:28:08.541Z,20.00
2022-10-19T00:30:38.540Z,20.00
2022-10-19T00:33:05.300Z,20.00
2022-10-19T00:35:32.154Z,20.00
2022-10-19T00:37:58.867Z,19.90
2022-10-19T00:40:25.633Z,20.00
2022-10-19T00:42:56.424Z,20.00
2022-10-19T00:45:23.127Z,20.00
2022-10-19T00:47:50.482Z,20.00
2022-10-19T00:50:17.626Z,20.00
2022-10-19T00:52:44.557Z,20.00
2022-10-19T00:55:11.820Z,20.00
2022-10-19T00:57:39.728Z,20.00
2022-10-19T01:00:07.221Z,20.00
2022-10-19T01:02:34.514Z,20.00
2022-10-19T01:05:02.261Z,19.90
2022-10-19T01:07:29.009Z,20.00
2022-10-19T01:09:55.796Z,20.00
2022-10-19T01:12:22.872Z,19.90
2022-10-19T01:15:03.573Z,20.00
2022-10-19T01:17:39.482Z,20.00
2022-10-19T01:20:32.306Z,20.00
2022-10-19T01:23:04.846Z,20.00
2022-10-19T01:25:46.630Z,20.00
2022-10-19T01:28:52.133Z,20.00
2022-10-19T01:31:18.864Z,20.00
2022-10-19T01:33:48.937Z,20.00
2022-10-19T01:36:18.730Z,20.00
2022-10-19T01:38:54.650Z,20.00
2022-10-19T01:41:26.739Z,20.00
2022-10-19T01:43:53.421Z,20.00
2022-10-19T01:46:30.534Z,20.00
2022-10-19T01:49:01.127Z,20.00
2022-10-19T01:51:30.484Z,20.00
2022-10-19T01:53:58.936Z,20.00
2022-10-19T01:56:26.981Z,20.00
2022-10-19T01:58:56.183Z,20.00
2022-10-19T02:01:24.518Z,20.00
2022-10-19T02:03:52.155Z,20.00
2022-10-19T02:06:19.013Z,20.00
2022-10-19T02:08:50.198Z,20.00
2022-10-19T02:11:17.261Z,20.00
2022-10-19T02:13:45.158Z,20.00
2022-10-19T02:16:19.399Z,20.00
2022-10-19T02:18:47.612Z,20.00
2022-10-19T02:21:14.405Z,20.00
2022-10-19T02:23:41.379Z,19.90
2022-10-19T02:26:08.428Z,20.00
2022-10-19T02:28:35.393Z,20.00
2022-10-19T02:31:02.192Z,20.00
2022-10-19T02:33:29.301Z,20.00
2022-10-19T02:35:56.454Z,20.00
2022-10-19T02:38:23.942Z,20.00
2022-10-19T02:41:14.473Z,20.00
2022-10-19T02:43:42.855Z,20.00
2022-10-19T02:46:13.615Z,20.00
2022-10-19T02:48:40.923Z,20.00
2022-10-19T02:51:26.454Z,20.00
2022-10-19T02:53:53.237Z,20.00
2022-10-19T02:56:19.968Z,20.00
2022-10-19T02:58:46.681Z,20.00
2022-10-19T03:01:14.782Z,20.00
2022-10-19T03:03:41.603Z,20.00
2022-10-19T03:06:08.334Z,20.00
2022-10-19T03:08:35.358Z,20.00
2022-10-19T03:11:02.104Z,20.00
2022-10-19T03:13:28.853Z,20.00
2022-10-19T03:15:55.665Z,20.00
2022-10-19T03:18:22.370Z,20.00
2022-10-19T03:20:49.081Z,19.90
2022-10-19T03:23:15.897Z,20.00
2022-10-19T03:25:42.696Z,20.00
2022-10-19T03:28:09.427Z,20.00
2022-10-19T03:30:36.317Z,20.00
2022-10-19T03:33:03.086Z,20.00
2022-10-19T03:35:29.870Z,20.00
2022-10-19T03:37:56.624Z,20.00
2022-10-19T03:40:23.350Z,20.00
2022-10-19T03:42:50.067Z,20.00
2022-10-19T03:45:16.961Z,20.00
2022-10-19T03:47:43.657Z,20.00
2022-10-19T03:50:13.148Z,20.00
2022-10-19T03:52:40.030Z,20.00
2022-10-19T03:55:07.083Z,20.00
2022-10-19T03:57:33.999Z,20.10
2022-10-19T04:00:01.128Z,20.00
2022-10-19T04:02:27.872Z,20.00
2022-10-19T04:04:54.589Z,20.00
2022-10-19T04:07:21.493Z,20.00
2022-10-19T04:09:48.238Z,20.00
2022-10-19T04:12:14.973Z,20.00
2022-10-19T04:14:56.392Z,20.00
2022-10-19T04:17:23.985Z,20.00
2022-10-19T04:19:50.764Z,20.00
2022-10-19T04:22:17.496Z,20.10
2022-10-19T04:24:44.201Z,20.00
2022-10-19T04:27:11.086Z,20.00
2022-10-19T04:29:37.844Z,20.00
2022-10-19T04:32:04.603Z,20.00
2022-10-19T04:34:32.038Z,20.00
2022-10-19T04:37:01.340Z,20.00
2022-10-19T04:39:28.103Z,20.00
2022-10-19T04:41:55.042Z,20.00
2022-10-19T04:44:21.859Z,20.00
2022-10-19T04:46:48.575Z,20.00
2022-10-19T04:49:17.952Z,20.00
2022-10-19T04:51:46.922Z,20.00
2022-10-19T04:54:13.675Z,20.00
2022-10-19T04:56:40.512Z,20.00
2022-10-19T04:59:07.390Z,20.00
2022-10-19T05:01:34.112Z,20.00
2022-10-19T05:04:01.679Z,20.00
2022-10-19T05:06:29.284Z,20.00
2022-10-19T05:08:56.066Z,20.00
2022-10-19T05:11:23.099Z,20.00
2022-10-19T05:13:49.864Z,20.00
2022-10-19T05:16:19.065Z,20.00
2022-10-19T05:18:50.108Z,20.00
2022-10-19T05:21:17.336Z,20.00
2022-10-19T05:23:44.145Z,20.00
2022-10-19T05:26:16.611Z,20.00
2022-10-19T05:28:43.936Z,19.90
2022-10-19T05:31:12.026Z,19.90
2022-10-19T05:33:39.399Z,20.00
2022-10-19T05:36:13.231Z,19.90
2022-10-19T05:38:39.976Z,20.00
2022-10-19T05:41:06.731Z,19.90
2022-10-19T05:43:33.530Z,20.00
2022-10-19T05:46:07.104Z,20.00
2022-10-19T05:48:34.989Z,20.00
2022-10-19T05:51:02.799Z,20.00
2022-10-19T05:53:29.689Z,20.00
2022-10-19T05:55:56.540Z,19.90
2022-10-19T05:58:23.511Z,20.00
2022-10-19T06:00:55.046Z,19.90
2022-10-19T06:03:22.280Z,19.90
2022-10-19T06:05:49.522Z,20.00
2022-10-19T06:08:16.821Z,20.00
2022-10-19T06:10:43.859Z,20.00
2022-10-19T06:13:10.608Z,20.00
2022-10-19T06:15:40.079Z,20.00
2022-10-19T06:18:10.638Z,20.00
2022-10-19T06:20:38.311Z,20.00
2022-10-19T06:23:05.698Z,20.00
2022-10-19T06:25:32.802Z,20.00
2022-10-19T06:27:59.676Z,20.00
2022-10-19T06:30:26.688Z,20.00
2022-10-19T06:32:53.549Z,20.00
2022-10-19T06:35:20.352Z,19.90
2022-10-19T06:37:47.416Z,20.00
2022-10-19T06:40:14.279Z,20.00
2022-10-19T06:42:41.031Z,20.00
2022-10-19T06:45:09.082Z,20.10
2022-10-19T06:47:36.447Z,20.00
2022-10-19T06:50:06.919Z,19.80
2022-10-19T06:52:34.913Z,18.60
2022-10-19T06:55:02.268Z,18.30
2022-10-19T06:57:28.985Z,18.10
2022-10-19T06:59:56.023Z,18.10
2022-10-19T07:02:22.765Z,17.90
2022-10-19T07:04:49.581Z,17.80
2022-10-19T07:07:16.692Z,17.90
2022-10-19T07:09:43.429Z,18.00
2022-10-19T07:12:10.917Z,18.00
2022-10-19T07:14:39.841Z,18.10
2022-10-19T07:17:07.292Z,18.30
2022-10-19T07:19:34.391Z,18.30
2022-10-19T07:22:01.336Z,18.30
2022-10-19T07:24:28.066Z,18.30
2022-10-19T07:26:55.175Z,18.40
2022-10-19T07:29:22.399Z,18.50
2022-10-19T07:31:49.919Z,18.60
2022-10-19T07:34:23.175Z,18.70
2022-10-19T07:36:52.798Z,18.70
2022-10-19T07:39:19.572Z,18.90
2022-10-19T07:41:46.373Z,19.00
2022-10-19T07:44:15.749Z,19.20
2022-10-19T07:46:42.854Z,19.40
2022-10-19T07:49:10.947Z,19.50
2022-10-19T07:51:38.506Z,19.60
2022-10-19T07:54:05.467Z,19.80
2022-10-19T07:56:32.471Z,19.80
2022-10-19T07:59:00.408Z,19.80
2022-10-19T08:01:31.031Z,19.80
2022-10-19T08:04:48.975Z,19.90
2022-10-19T08:06:45.911Z,19.90
2022-10-19T08:09:27.652Z,20.00
2022-10-19T08:11:59.548Z,20.10
2022-10-19T08:14:26.355Z,20.20
2022-10-19T08:16:53.084Z,20.20
2022-10-19T08:19:20.022Z,20.30
2022-10-19T08:21:47.354Z,20.20
2022-10-19T08:24:14.910Z,20.30
2022-10-19T08:26:41.924Z,20.40
2022-10-19T08:29:10.840Z,20.30
2022-10-19T08:31:37.961Z,20.20
2022-10-19T08:34:05.147Z,20.20
2022-10-19T08:36:32.686Z,20.10
2022-10-19T08:38:59.431Z,20.10
2022-10-19T08:41:41.467Z,20.20
2022-10-19T08:44:17.326Z,20.20
2022-10-19T08:46:50.223Z,20.20
2022-10-19T08:49:21.487Z,20.20
2022-10-19T08:51:51.107Z,20.20
2022-10-19T08:54:18.253Z,20.20
2022-10-19T08:56:51.488Z,20.20
2022-10-19T08:59:38.830Z,20.30
2022-10-19T09:02:24.443Z,20.30
2022-10-19T09:04:56.201Z,20.30
2022-10-19T09:07:27.507Z,20.30
2022-10-19T09:10:00.019Z,20.30
2022-10-19T09:12:45.249Z,20.30
2022-10-19T09:15:13.599Z,20.30
2022-10-19T09:17:40.356Z,20.30
2022-10-19T09:20:15.158Z,20.30
2022-10-19T09:22:42.326Z,20.30
2022-10-19T09:25:12.077Z,20.30
2022-10-19T09:27:39.762Z,20.30
2022-10-19T09:30:18.115Z,20.30
2022-10-19T09:32:45.118Z,20.30
2022-10-19T09:35:17.843Z,20.30
2022-10-19T09:37:46.088Z,20.30
2022-10-19T09:40:18.198Z,20.20
2022-10-19T09:42:45.067Z,20.30
2022-10-19T09:45:17.589Z,20.20
2022-10-19T09:47:45.909Z,20.20
2022-10-19T09:50:23.064Z,20.20
2022-10-19T09:52:51.093Z,20.20
2022-10-19T09:55:34.232Z,20.20
2022-10-19T09:58:02.995Z,20.20
2022-10-19T10:00:35.005Z,20.20
2022-10-19T10:03:01.847Z,20.20
2022-10-19T10:05:36.484Z,20.20
2022-10-19T10:08:04.225Z,20.20
2022-10-19T10:10:36.831Z,20.20
2022-10-19T10:13:03.659Z,20.20
2022-10-19T10:15:56.625Z,20.10
2022-10-19T10:18:24.478Z,20.10
2022-10-19T10:23:34.147Z,20.10
2022-10-19T10:26:01.032Z,20.10
2022-10-19T10:28:29.123Z,20.20
2022-10-19T10:31:05.986Z,20.10
2022-10-19T10:33:44.193Z,20.10
2022-10-19T10:36:12.661Z,20.10
2022-10-19T10:38:41.628Z,20.10
2022-10-19T10:41:14.479Z,20.10
2022-10-19T10:43:53.210Z,20.10
2022-10-19T10:46:22.966Z,20.20
2022-10-19T10:48:55.602Z,20.20
2022-10-19T10:51:25.826Z,20.10
2022-10-19T10:54:06.202Z,20.10
2022-10-19T10:56:34.245Z,20.10
2022-10-19T10:59:21.204Z,20.10
2022-10-19T11:01:54.285Z,20.10
2022-10-19T11:04:23.551Z,20.10
2022-10-19T11:06:55.959Z,20.10
2022-10-19T11:09:35.666Z,20.10
2022-10-19T11:12:04.320Z,20.10
2022-10-19T11:14:42.830Z,20.20
2022-10-19T11:17:16.589Z,20.20
2022-10-19T11:19:45.174Z,20.20
2022-10-19T11:22:11.889Z,20.10
2022-10-19T11:24:57.251Z,20.10
2022-10-19T11:27:33.345Z,20.20
2022-10-19T11:30:15.579Z,20.10
2022-10-19T11:33:00.714Z,20.10
2022-10-19T11:35:36.693Z,20.10
2022-10-19T11:38:25.146Z,20.10
2022-10-19T11:43:56.220Z,20.10
2022-10-19T11:46:37.731Z,20.10
2022-10-19T11:49:10.133Z,20.10
2022-10-19T11:51:36.967Z,20.10
2022-10-19T11:54:13.850Z,20.10
2022-10-19T11:57:02.565Z,20.20
2022-10-19T11:59:48.252Z,20.10
2022-10-19T12:02:24.114Z,20.10
2022-10-19T12:04:53.922Z,20.10
2022-10-19T12:07:20.650Z,20.20
2022-10-19T12:10:07.246Z,20.10
2022-10-19T12:12:36.458Z,20.10
2022-10-19T12:15:13.003Z,20.10
2022-10-19T12:17:41.746Z,20.10
2022-10-19T12:20:17.496Z,20.10
2022-10-19T12:22:47.121Z,20.10
2022-10-19T12:25:14.845Z,20.10
2022-10-19T12:27:42.154Z,20.10
2022-10-19T12:30:13.585Z,20.10
2022-10-19T12:32:52.003Z,20.10
2022-10-19T12:35:24.014Z,20.10
2022-10-19T12:37:55.796Z,20.10
2022-10-19T12:40:25.545Z,20.10
2022-10-19T12:42:58.522Z,20.20
2022-10-19T12:45:44.920Z,20.10
2022-10-19T12:48:15.757Z,20.10
2022-10-19T12:50:48.594Z,20.10
2022-10-19T12:53:28.900Z,20.10
2022-10-19T12:56:00.274Z,20.10
2022-10-19T12:58:29.636Z,20.10
2022-10-19T13:01:00.175Z,20.20
2022-10-19T13:03:47.051Z,20.10
2022-10-19T13:06:17.961Z,20.10
2022-10-19T13:08:55.834Z,20.10
2022-10-19T13:11:23.808Z,20.10
2022-10-19T13:14:03.921Z,20.10
2022-10-19T13:16:36.597Z,20.10
2022-10-19T13:19:12.465Z,20.10
2022-10-19T13:21:50.140Z,20.10
2022-10-19T13:24:36.079Z,20.10
2022-10-19T13:27:02.907Z,20.10
2022-10-19T13:29:39.158Z,20.10
2022-10-19T13:32:24.788Z,20.10
2022-10-19T13:34:51.807Z,20.10
2022-10-19T13:37:18.675Z,20.10
2022-10-19T13:39:45.526Z,20.10
2022-10-19T13:42:32.777Z,20.10
2022-10-19T13:44:59.732Z,20.20
2022-10-19T13:50:26.564Z,20.10
2022-10-19T13:52:53.383Z,20.10
2022-10-19T13:55:34.970Z,20.10
2022-10-19T13:58:14.251Z,20.20
2022-10-19T14:00:50.119Z,20.10
2022-10-19T14:03:26.410Z,20.20
2022-10-19T14:06:11.827Z,20.10
2022-10-19T14:08:49.723Z,20.10
2022-10-19T14:11:19.034Z,20.10
2022-10-19T14:13:46.073Z,20.10
2022-10-19T14:16:20.778Z,20.10
2022-10-19T14:18:54.685Z,20.10
2022-10-19T14:21:32.012Z,20.10
2022-10-19T14:23:59.065Z,20.20
2022-10-19T14:26:29.985Z,20.10
2022-10-19T14:28:58.226Z,20.10
2022-10-19T14:31:28.696Z,20.20
2022-10-19T14:33:57.625Z,20.10
2022-10-19T14:36:28.099Z,20.10
2022-10-19T14:38:55.647Z,20.10
2022-10-19T14:41:28.339Z,20.10
2022-10-19T14:43:56.107Z,20.10
2022-10-19T14:46:33.200Z,20.10
2022-10-19T14:49:01.222Z,20.10
2022-10-19T14:51:37.083Z,20.10
2022-10-19T14:54:03.913Z,20.10
2022-10-19T14:56:49.392Z,20.10
2022-10-19T14:59:16.059Z,20.10
2022-10-19T15:01:48.507Z,20.10
2022-10-19T15:04:27.586Z,20.10
2022-10-19T15:06:55.348Z,20.10
2022-10-19T15:09:36.787Z,20.10
2022-10-19T15:12:09.013Z,20.10
2022-10-19T15:14:37.242Z,20.10
2022-10-19T15:17:05.879Z,20.10
2022-10-19T15:19:39.343Z,20.10
2022-10-19T15:22:09.026Z,20.10
2022-10-19T15:24:36.651Z,20.10
2022-10-19T15:27:11.185Z,20.10
2022-10-19T15:29:37.921Z,20.10
2022-10-19T15:32:15.323Z,20.10
2022-10-19T15:34:43.695Z,20.10
2022-10-19T15:37:16.722Z,20.10
2022-10-19T15:39:45.773Z,20.10
2022-10-19T15:42:31.328Z,20.10
2022-10-19T15:44:58.079Z,20.10
2022-10-19T15:47:25.275Z,20.20
2022-10-19T15:49:52.015Z,20.20
2022-10-19T15:52:19.993Z,20.10
2022-10-19T15:54:54.385Z,20.10
2022-10-19T15:57:26.109Z,20.10
2022-10-19T15:59:53.498Z,20.10
2022-10-19T16:02:20.240Z,20.10
2022-10-19T16:04:46.933Z,20.10
2022-10-19T16:07:16.379Z,20.10
2022-10-19T16:09:43.266Z,20.10
2022-10-19T16:12:10.834Z,20.10
2022-10-19T16:14:37.557Z,20.00
2022-10-19T16:17:04.563Z,20.10
2022-10-19T16:19:31.391Z,20.00
2022-10-19T16:21:58.102Z,20.00
2022-10-19T16:24:25.005Z,20.00
2022-10-19T16:26:51.767Z,20.00
2022-10-19T16:29:18.545Z,20.00
2022-10-19T16:31:45.251Z,20.00
2022-10-19T16:34:11.973Z,20.00
2022-10-19T16:36:38.663Z,20.00
2022-10-19T16:39:05.583Z,20.10
2022-10-19T16:41:32.318Z,20.00
2022-10-19T16:43:59.209Z,20.00
2022-10-19T16:46:26.547Z,20.00
2022-10-19T16:48:53.420Z,20.00
2022-10-19T16:51:25.147Z,20.00
2022-10-19T16:53:53.261Z,20.00
2022-10-19T16:56:20.320Z,20.00
2022-10-19T16:58:47.126Z,20.00
2022-10-19T17:01:16.141Z,20.00
2022-10-19T17:03:44.015Z,20.00
2022-10-19T17:06:10.995Z,20.00
2022-10-19T17:09:07.417Z,20.00
2022-10-19T17:11:29.149Z,20.00
2022-10-19T17:13:57.532Z,20.00
2022-10-19T17:16:25.016Z,20.00
2022-10-19T17:18:54.087Z,20.00
2022-10-19T17:21:26.048Z,20.00
2022-10-19T17:23:54.045Z,20.00
2022-10-19T17:26:27.672Z,20.00
2022-10-19T17:28:54.858Z,20.00
2022-10-19T17:31:21.799Z,20.00
2022-10-19T17:33:51.393Z,20.00
2022-10-19T17:36:19.801Z,20.00
2022-10-19T17:38:46.847Z,20.00
2022-10-19T17:41:15.256Z,20.00
2022-10-19T17:43:42.783Z,20.00
2022-10-19T17:46:10.546Z,20.00
2022-10-19T17:48:38.317Z,20.00
2022-10-19T17:51:06.301Z,20.00
2022-10-19T17:53:33.745Z,20.00
2022-10-19T17:56:01.854Z,20.00
2022-10-19T17:58:28.629Z,20.00
2022-10-19T18:00:55.768Z,20.00
2022-10-19T18:03:26.882Z,20.00
2022-10-19T18:05:57.254Z,20.00
2022-10-19T18:08:24.063Z,20.00
2022-10-19T18:10:54.313Z,20.00
2022-10-19T18:13:21.031Z,20.00
2022-10-19T18:15:48.279Z,20.00
2022-10-19T18:18:15.135Z,20.00
2022-10-19T18:20:41.845Z,20.00
2022-10-19T18:23:08.553Z,20.00
2022-10-19T18:25:53.344Z,20.00
2022-10-19T18:28:20.546Z,20.00
2022-10-19T18:30:47.417Z,20.00
2022-10-19T18:33:14.110Z,20.00
2022-10-19T18:35:41.075Z,20.00
2022-10-19T18:38:08.033Z,20.00
2022-10-19T18:40:35.561Z,20.00
2022-10-19T18:43:02.367Z,20.00
2022-10-19T18:45:29.131Z,20.00
2022-10-19T18:47:55.825Z,20.00
2022-10-19T18:50:22.601Z,20.00
2022-10-19T18:52:49.350Z,20.00
2022-10-19T18:55:16.063Z,20.00
2022-10-19T18:57:42.740Z,20.00
2022-10-19T19:00:09.783Z,20.00
2022-10-19T19:02:46.504Z,20.00
2022-10-19T19:05:14.102Z,20.00
2022-10-19T19:07:40.882Z,20.00
2022-10-19T19:10:07.755Z,20.10
2022-10-19T19:12:34.878Z,20.00
2022-10-19T19:15:01.905Z,20.00
2022-10-19T19:17:28.645Z,20.10
2022-10-19T19:19:55.866Z,20.10
2022-10-19T19:22:26.059Z,20.00
2022-10-19T19:24:53.390Z,20.00
2022-10-19T19:27:22.868Z,20.10
2022-10-19T19:29:49.899Z,20.00
2022-10-19T19:32:17.083Z,20.00
2022-10-19T19:34:43.968Z,20.00
2022-10-19T19:37:11.369Z,20.00
2022-10-19T19:39:38.445Z,20.00
2022-10-19T19:42:05.424Z,20.00
2022-10-19T19:44:32.273Z,20.00
2022-10-19T19:47:00.114Z,20.10
2022-10-19T19:49:27.322Z,20.00
2022-10-19T19:51:54.612Z,20.00
2022-10-19T19:54:21.826Z,20.00
2022-10-19T19:56:52.482Z,20.00
2022-10-19T19:59:19.461Z,20.00
2022-10-19T20:01:46.252Z,20.00
2022-10-19T20:04:13.230Z,20.00
2022-10-19T20:06:40.265Z,20.00
2022-10-19T20:09:07.955Z,20.00
2022-10-19T20:11:37.263Z,20.10
2022-10-19T20:14:07.962Z,20.00
2022-10-19T20:16:34.781Z,20.00
2022-10-19T20:19:06.190Z,20.10
2022-10-19T20:21:33.732Z,20.10
2022-10-19T20:24:00.981Z,20.00
2022-10-19T20:26:27.977Z,20.00
2022-10-19T20:28:55.242Z,20.00
2022-10-19T20:31:22.460Z,20.00
2022-10-19T20:33:49.319Z,20.00
2022-10-19T20:36:25.875Z,20.00
2022-10-19T20:38:53.820Z,20.00
2022-10-19T20:41:21.868Z,20.00
2022-10-19T20:43:49.060Z,20.00
2022-10-19T20:46:17.803Z,20.00
2022-10-19T20:48:45.363Z,20.00
2022-10-19T20:51:17.028Z,20.00
2022-10-19T20:53:47.424Z,20.00
2022-10-19T20:56:15.607Z,20.00
2022-10-19T20:58:43.899Z,20.10
2022-10-19T21:01:12.590Z,20.10
2022-10-19T21:03:39.435Z,20.10
2022-10-19T21:06:07.256Z,20.10
2022-10-19T21:08:34.635Z,20.10
2022-10-19T21:11:01.675Z,20.20
2022-10-19T21:13:28.544Z,20.10
2022-10-19T21:15:55.296Z,20.10
2022-10-19T21:18:21.994Z,20.10
2022-10-19T21:20:48.747Z,20.10
2022-10-19T21:23:15.437Z,20.10
2022-10-19T21:25:52.140Z,20.00
2022-10-19T21:28:18.888Z,20.10
2022-10-19T21:30:45.582Z,20.00
2022-10-19T21:33:12.309Z,20.10
2022-10-19T21:35:39.036Z,20.10
2022-10-19T21:38:05.736Z,20.10
2022-10-19T21:40:34.676Z,20.00
2022-10-19T21:43:01.385Z,20.10
2022-10-19T21:45:30.654Z,20.00
2022-10-19T21:47:57.932Z,20.00
2022-10-19T21:50:24.677Z,20.10
2022-10-19T21:52:51.402Z,20.10
2022-10-19T21:55:18.170Z,20.00
2022-10-19T21:57:45.550Z,20.10
2022-10-19T22:00:12.583Z,20.00
2022-10-19T22:02:39.345Z,20.00
2022-10-19T22:05:06.170Z,20.10
2022-10-19T22:07:32.948Z,20.10
2022-10-19T22:09:59.983Z,20.00
2022-10-19T22:12:26.655Z,20.00
2022-10-19T22:14:53.337Z,20.10
2022-10-19T22:17:20.299Z,20.10
2022-10-19T22:19:46.963Z,20.10
2022-10-19T22:22:13.644Z,20.10
2022-10-19T22:24:40.472Z,20.10
2022-10-19T22:27:07.196Z,20.00
2022-10-19T22:29:33.931Z,20.00
2022-10-19T22:32:00.704Z,20.10
2022-10-19T22:34:27.433Z,20.00
2022-10-19T22:36:54.093Z,20.10
2022-10-19T22:39:20.929Z,20.10
2022-10-19T22:41:47.628Z,20.10
2022-10-19T22:44:14.348Z,20.00
2022-10-19T22:46:41.229Z,20.00
2022-10-19T22:51:40.758Z,20.00
2022-10-19T22:54:07.485Z,20.10
2022-10-19T22:56:34.365Z,20.00
2022-10-19T22:59:01.864Z,20.10
2022-10-19T23:01:28.720Z,20.00
2022-10-19T23:03:55.542Z,20.10
2022-10-19T23:06:22.522Z,20.10
2022-10-19T23:08:49.417Z,20.10
2022-10-19T23:11:16.163Z,20.10
2022-10-19T23:13:43.019Z,20.00
2022-10-19T23:16:10.082Z,20.00
2022-10-19T23:18:37.971Z,20.00
2022-10-19T23:21:06.814Z,20.00
2022-10-19T23:23:33.862Z,20.00
2022-10-19T23:26:11.307Z,20.00
2022-10-19T23:28:38.652Z,20.00
2022-10-19T23:31:06.797Z,20.00
2022-10-19T23:33:33.941Z,20.00
2022-10-19T23:36:04.589Z,20.00
2022-10-19T23:38:31.283Z,20.10
2022-10-19T23:40:58.034Z,20.00
2022-10-19T23:43:24.827Z,20.00
2022-10-19T23:45:51.552Z,20.00
2022-10-19T23:48:18.364Z,20.00
2022-10-19T23:50:45.102Z,20.00
2022-10-19T23:53:11.815Z,20.00
2022-10-19T23:55:38.825Z,20.00
2022-10-19T23:58:05.542Z,20.00
